This is the latest recevied weather packets stored in our database for station/object IR1ZYZ-3. If no packets are shown the sender has not sent any weather packets the latest 10 day(s).
| Time | Temp. | Humidity | Pressure | Rain* | Wind** | Luminosity | Snow |
|---|---|---|---|---|---|---|---|
| 1777298161 | 26.67° C | 54% | 1018.2 hPa | - | - | - | - |
| 1777297556 | 26.11° C | 58% | 1018.4 hPa | - | - | - | - |
| 1777296950 | 26.67° C | 58% | 1018.6 hPa | - | - | - | - |
| 1777296345 | 26.67° C | 54% | 1018.7 hPa | - | - | - | - |
| 1777295739 | 26.67° C | 56% | 1018.8 hPa | - | - | - | - |
| 1777295134 | 26.67° C | 64% | 1018.8 hPa | - | - | - | - |
| 1777294529 | 24.44° C | 63% | 1019.2 hPa | - | - | - | - |
| 1777293923 | 23.89° C | 64% | 1019.3 hPa | - | - | - | - |
| 1777293318 | 26.67° C | 60% | 1018.9 hPa | - | - | - | - |
| 1777292713 | 22.78° C | 72% | 1019.4 hPa | - | - | - | - |
| 1777292108 | 27.78° C | 58% | 1019 hPa | - | - | - | - |
| 1777291502 | 28.89° C | 61% | 1018.8 hPa | - | - | - | - |
| 1777290897 | 28.89° C | - | - | - | - | - | - |
| 1777290897 | 28.89° C | 62% | 1018.9 hPa | - | - | - | - |
| 1777290291 | 28.89° C | 57% | 1019 hPa | - | - | - | - |
| 1777289686 | 27.22° C | 56% | 1019.3 hPa | - | - | - | - |
| 1777289686 | 27.22° C | 56% | 1019.3 hPa | - | - | - | - |
| 1777289080 | 26.67° C | 57% | 1019.3 hPa | - | - | - | - |
| 1777288475 | 26.67° C | 64% | 1019.4 hPa | - | - | - | - |
| 1777287869 | 23.89° C | 70% | 1019.7 hPa | - | - | - | - |
| 1777287263 | 24.44° C | 71% | 1019.8 hPa | - | - | - | - |
| 1777286657 | 21.67° C | 87% | 1020.2 hPa | - | - | - | - |
| 1777286052 | 22.78° C | 81% | 1020.1 hPa | - | - | - | - |
| 1777285447 | 22.22° C | 92% | 1020.3 hPa | - | - | - | - |
| 1777284842 | 20.56° C | 10% | - | - | - | - | - |
* Rain since midnight (hover to see other rain measurements)
** Current wind speed in m/s (hover to see current wind gust speed)